Time;durP1;ratioP1;P1;durP2;ratioP2;P2;SDS_P1;SDS_P2;PMS_P1;PMS_P2;Temp;Humidity;BMP_temperature;BMP_pressure;BME280_temperature;BME280_humidity;BME280_pressure;Samples;Min_cycle;Max_cycle;Signal;HPM_P1;HPM_P2
2024/04/11 00:01:21;;;;;;;7.13;2.22;;;8.60;99.90;;;;;;5453177;26;19991;-52
2024/04/11 00:03:47;;;;;;;5.53;1.90;;;8.70;99.90;;;;;;5453417;26;19991;-48
2024/04/11 00:06:13;;;;;;;6.77;2.40;;;8.80;99.90;;;;;;5453545;26;19991;-50
2024/04/11 00:08:39;;;;;;;7.50;2.10;;;8.80;99.90;;;;;;5452943;26;20033;-47
2024/04/11 00:11:05;;;;;;;6.27;2.13;;;8.80;99.90;;;;;;5453656;26;20390;-49
2024/04/11 00:13:31;;;;;;;7.37;2.20;;;8.80;99.90;;;;;;5453001;26;20401;-51
2024/04/11 00:15:57;;;;;;;6.20;2.20;;;8.80;99.90;;;;;;5452868;26;20067;-50
2024/04/11 00:18:24;;;;;;;7.37;2.30;;;8.90;99.90;;;;;;5452829;26;20006;-49
2024/04/11 00:20:55;;;;;;;7.70;2.13;;;8.80;99.90;;;;;;5453122;26;20448;-48
2024/04/11 00:23:24;;;;;;;7.37;2.07;;;8.90;99.90;;;;;;5452875;26;20005;-50
2024/04/11 00:25:55;;;;;;;6.47;1.75;;;8.90;99.90;;;;;;5452978;26;19995;-51
2024/04/11 00:28:22;;;;;;;7.90;2.33;;;8.90;99.90;;;;;;5451003;26;20516;-49
2024/04/11 00:30:49;;;;;;;10.63;2.27;;;8.90;99.90;;;;;;5452679;26;20389;-50
2024/04/11 00:33:15;;;;;;;9.73;2.63;;;8.90;99.90;;;;;;5452667;26;20079;-51
2024/04/11 00:35:42;;;;;;;6.70;2.30;;;8.80;99.90;;;;;;5452796;26;20006;-48
2024/04/11 00:38:10;;;;;;;9.20;2.30;;;8.90;99.90;;;;;;5452319;26;20434;-52
2024/04/11 00:40:38;;;;;;;7.37;2.43;;;8.90;99.90;;;;;;5452615;26;19995;-51
2024/04/11 00:43:10;;;;;;;11.02;2.17;;;8.90;99.90;;;;;;5452824;26;20044;-51
2024/04/11 00:45:47;;;;;;;4.33;1.93;;;8.90;99.90;;;;;;5452532;26;20437;-48
2024/04/11 00:48:14;;;;;;;5.90;1.93;;;8.80;99.90;;;;;;5452383;26;20009;-50
2024/04/11 00:50:42;;;;;;;6.33;2.03;;;8.80;99.90;;;;;;5480978;26;19994;-50
2024/04/11 00:53:09;;;;;;;7.97;2.70;;;8.80;99.90;;;;;;5452362;26;20010;-50
2024/04/11 00:55:35;;;;;;;8.07;2.33;;;8.80;99.90;;;;;;5452422;26;20007;-49
2024/04/11 00:58:02;;;;;;;11.83;2.60;;;8.80;99.90;;;;;;5452067;26;20324;-51
2024/04/11 01:00:29;;;;;;;5.97;2.30;;;8.80;99.90;;;;;;5452187;26;19991;-52
2024/04/11 01:02:55;;;;;;;7.70;2.10;;;8.80;99.90;;;;;;5452246;26;20071;-52
2024/04/11 01:05:21;;;;;;;7.70;2.20;;;8.80;99.90;;;;;;5450804;26;20068;-52
2024/04/11 01:07:54;;;;;;;7.20;1.83;;;8.80;99.90;;;;;;5452365;26;20321;-50
2024/04/11 01:10:22;;;;;;;10.07;2.70;;;8.80;99.90;;;;;;5452393;26;20451;-48
2024/04/11 01:12:51;;;;;;;6.83;1.80;;;8.80;99.90;;;;;;5452198;26;20040;-47
2024/04/11 01:15:17;;;;;;;;;;;8.80;99.90;;;;;;5452884;26;20447;-49
2024/04/11 01:17:47;;;;;;;8.10;2.37;;;8.80;99.90;;;;;;5451908;26;19924;-48
2024/04/11 01:20:15;;;;;;;7.37;2.27;;;8.90;99.90;;;;;;5451956;26;19995;-50
2024/04/11 01:22:41;;;;;;;5.20;1.73;;;8.90;99.90;;;;;;5452014;26;20495;-50
2024/04/11 01:25:08;;;;;;;8.90;2.23;;;8.80;99.90;;;;;;5452263;26;20010;-47
2024/04/11 01:27:35;;;;;;;6.10;2.00;;;8.80;99.90;;;;;;5451681;26;19994;-49
2024/04/11 01:30:04;;;;;;;6.63;2.67;;;8.80;99.90;;;;;;5451910;26;20159;-48
2024/04/11 01:32:30;;;;;;;;;;;8.80;99.90;;;;;;5452567;26;19998;-47
2024/04/11 01:34:59;;;;;;;6.90;1.80;;;9.00;99.90;;;;;;5451961;26;19993;-51
2024/04/11 01:37:28;;;;;;;6.43;1.70;;;8.90;99.90;;;;;;5451456;26;19995;-48
2024/04/11 01:39:55;;;;;;;;;;;8.90;99.90;;;;;;5452690;26;20010;-48
2024/04/11 01:42:22;;;;;;;8.30;2.13;;;8.90;99.90;;;;;;5451492;26;19932;-48
2024/04/11 01:44:48;;;;;;;6.53;1.87;;;8.80;99.90;;;;;;5451764;26;20397;-47
2024/04/11 01:47:17;;;;;;;5.80;1.50;;;8.70;99.90;;;;;;5451388;26;19995;-50
2024/04/11 01:49:43;;;;;;;9.93;2.03;;;8.70;99.90;;;;;;5451580;26;20666;-51
2024/04/11 01:52:12;;;;;;;4.87;1.60;;;8.70;99.90;;;;;;5451693;26;20297;-50
2024/04/11 01:54:41;;;;;;;6.75;1.92;;;8.70;99.90;;;;;;5450137;26;20006;-50
2024/04/11 01:57:09;;;;;;;6.72;1.73;;;8.70;99.90;;;;;;5451112;26;20075;-48
2024/04/11 01:59:36;;;;;;;6.90;2.10;;;8.70;99.90;;;;;;5451440;26;19990;-50
2024/04/11 02:02:02;;;;;;;6.37;1.70;;;8.70;99.90;;;;;;5451279;26;20524;-47
2024/04/11 02:04:33;;;;;;;7.97;2.20;;;8.70;99.90;;;;;;5451768;26;19999;-51
2024/04/11 02:07:04;;;;;;;8.83;2.37;;;8.70;99.90;;;;;;5451073;26;20006;-48
2024/04/11 02:09:31;;;;;;;8.23;2.00;;;8.70;99.90;;;;;;5449623;26;20067;-48
2024/04/11 02:11:57;;;;;;;7.47;1.80;;;8.60;99.90;;;;;;5451164;26;20071;-51
2024/04/11 02:14:23;;;;;;;7.17;2.00;;;8.60;99.90;;;;;;5451166;26;19999;-50
2024/04/11 02:16:52;;;;;;;5.07;1.67;;;8.60;99.90;;;;;;5452728;26;20071;-49
2024/04/11 02:19:18;;;;;;;4.78;1.70;;;8.60;99.90;;;;;;5455093;26;20006;-48
2024/04/11 02:21:44;;;;;;;6.43;1.90;;;8.60;99.90;;;;;;5454606;26;19995;-49
2024/04/11 02:24:16;;;;;;;8.27;1.70;;;8.70;99.90;;;;;;5452798;26;20072;-50
2024/04/11 02:26:52;;;;;;;8.23;1.90;;;8.70;99.90;;;;;;5454711;26;19998;-48
2024/04/11 02:29:20;;;;;;;5.13;1.70;;;8.70;99.90;;;;;;5454800;26;20022;-48
2024/04/11 02:31:49;;;;;;;7.07;2.23;;;8.60;99.90;;;;;;5454385;26;20006;-48
2024/04/11 02:34:16;;;;;;;8.07;2.03;;;8.60;99.90;;;;;;5454421;26;20026;-51
2024/04/11 02:36:43;;;;;;;8.37;1.90;;;8.60;99.90;;;;;;5453889;26;19995;-48
2024/04/11 02:39:12;;;;;;;4.80;1.77;;;8.50;99.90;;;;;;5454336;26;20002;-47
2024/04/11 02:41:39;;;;;;;9.43;1.63;;;8.60;99.90;;;;;;5454316;26;20010;-48
2024/04/11 02:44:05;;;;;;;4.40;1.43;;;8.60;99.90;;;;;;5454157;26;20443;-49
2024/04/11 02:46:39;;;;;;;4.27;1.60;;;8.70;99.90;;;;;;5454347;26;20002;-48
2024/04/11 02:49:05;;;;;;;7.77;1.50;;;8.60;99.90;;;;;;5452696;26;19991;-51
2024/04/11 02:51:32;;;;;;;8.33;1.90;;;8.60;99.90;;;;;;5454436;26;20044;-48
2024/04/11 02:53:58;;;;;;;8.17;1.70;;;8.70;99.90;;;;;;5454176;26;20035;-48
2024/04/11 02:56:26;;;;;;;7.33;1.70;;;8.70;99.90;;;;;;5454166;26;20206;-50
2024/04/11 02:58:55;;;;;;;8.57;2.13;;;8.80;99.90;;;;;;5453740;26;19995;-47
2024/04/11 03:01:21;;;;;;;5.75;1.40;;;8.90;99.90;;;;;;5454259;26;20466;-47
2024/04/11 03:03:48;;;;;;;5.07;1.20;;;9.00;99.90;;;;;;5454145;26;20439;-49
2024/04/11 03:06:20;;;;;;;6.57;1.47;;;9.10;99.90;;;;;;5453881;26;20064;-48
2024/04/11 03:08:53;;;;;;;7.00;1.53;;;9.20;99.90;;;;;;5453644;26;20320;-47
2024/04/11 03:11:19;;;;;;;5.53;1.50;;;9.40;99.90;;;;;;5453960;26;20143;-48
2024/04/11 03:13:45;;;;;;;6.67;1.40;;;9.40;99.90;;;;;;5454107;26;20452;-48
2024/04/11 03:16:11;;;;;;;6.10;1.50;;;9.50;99.90;;;;;;5453837;26;20068;-48
2024/04/11 03:18:41;;;;;;;6.97;1.40;;;9.60;99.90;;;;;;5453713;26;19995;-48
2024/04/11 03:21:07;;;;;;;6.53;1.60;;;9.60;99.90;;;;;;5453633;26;20462;-50
2024/04/11 03:23:33;;;;;;;5.80;1.40;;;9.60;99.90;;;;;;5453624;26;20042;-47
2024/04/11 03:25:59;;;;;;;5.17;1.80;;;9.60;99.90;;;;;;5454319;26;20448;-51
2024/04/11 03:28:26;;;;;;;10.47;1.60;;;9.60;99.90;;;;;;5452097;26;20344;-48
2024/04/11 03:30:56;;;;;;;7.20;1.33;;;9.70;99.90;;;;;;5453573;26;19998;-49
2024/04/11 03:33:26;;;;;;;4.17;1.30;;;9.90;99.90;;;;;;5453661;26;19999;-49
2024/04/11 03:36:05;;;;;;;7.55;1.70;;;9.90;99.90;;;;;;5453643;26;19994;-47
2024/04/11 03:38:32;;;;;;;4.07;1.13;;;9.90;99.90;;;;;;5453522;26;20009;-47
2024/04/11 03:41:04;;;;;;;4.70;1.20;;;9.90;99.90;;;;;;5453425;26;20035;-47
2024/04/11 03:43:37;;;;;;;6.83;1.50;;;10.00;99.90;;;;;;5453481;26;20007;-51
2024/04/11 03:46:11;;;;;;;11.53;2.13;;;10.00;99.90;;;;;;5453488;26;20536;-48
2024/04/11 03:48:39;;;;;;;5.60;1.40;;;10.00;99.90;;;;;;5453227;26;20071;-47
2024/04/11 03:51:13;;;;;;;3.63;1.60;;;10.00;99.90;;;;;;5453445;26;20001;-47
2024/04/11 03:53:43;;;;;;;6.13;1.70;;;9.90;99.90;;;;;;5453459;26;19995;-47
2024/04/11 03:56:10;;;;;;;4.20;1.40;;;9.90;99.90;;;;;;5453393;26;20010;-46
2024/04/11 03:58:39;;;;;;;4.40;1.10;;;9.80;99.90;;;;;;5453055;26;20409;-52
2024/04/11 04:01:05;;;;;;;;;;;9.90;99.90;;;;;;5453968;26;19998;-51
2024/04/11 04:03:33;;;;;;;6.13;1.37;;;9.90;99.90;;;;;;5453325;26;19993;-49
2024/04/11 04:05:59;;;;;;;4.47;1.30;;;9.80;99.90;;;;;;5453305;26;20460;-50
2024/04/11 04:08:26;;;;;;;6.67;1.43;;;9.80;99.90;;;;;;5452714;26;20344;-47
2024/04/11 04:10:52;;;;;;;8.57;1.57;;;9.90;99.90;;;;;;5481056;26;19991;-49
2024/04/11 04:13:18;;;;;;;5.73;1.90;;;9.90;99.90;;;;;;5453183;26;20063;-52
2024/04/11 04:15:44;;;;;;;7.50;2.00;;;10.00;99.90;;;;;;5453153;26;19990;-47
2024/04/11 04:18:12;;;;;;;3.63;1.00;;;10.00;99.90;;;;;;5452930;26;20063;-52
2024/04/11 04:20:42;;;;;;;4.17;1.33;;;10.00;99.90;;;;;;5482198;26;19999;-50
2024/04/11 04:23:10;;;;;;;5.63;1.20;;;10.10;99.90;;;;;;5452690;26;20443;-51
2024/04/11 04:25:39;;;;;;;4.20;1.20;;;10.10;99.90;;;;;;5452885;26;20451;-45
2024/04/11 04:28:07;;;;;;;4.57;1.40;;;10.10;99.90;;;;;;5452497;26;20359;-50
2024/04/11 04:30:33;;;;;;;3.53;1.17;;;10.10;99.90;;;;;;5453090;26;20529;-50
2024/04/11 04:32:59;;;;;;;3.83;1.30;;;10.20;99.90;;;;;;5452828;26;20011;-50
2024/04/11 04:35:28;;;;;;;4.90;1.30;;;10.20;99.90;;;;;;5452796;26;19995;-48
2024/04/11 04:37:55;;;;;;;7.60;1.33;;;10.30;99.90;;;;;;5452585;26;19994;-49
2024/04/11 04:40:21;;;;;;;4.57;1.20;;;10.30;99.90;;;;;;5452368;26;19994;-47
2024/04/11 04:42:49;;;;;;;5.27;1.40;;;10.30;99.90;;;;;;5452581;26;20076;-48
2024/04/11 04:45:15;;;;;;;5.20;1.20;;;10.30;99.90;;;;;;5452471;26;20324;-46
2024/04/11 04:47:41;;;;;;;14.37;5.30;;;10.20;99.90;;;;;;5452174;26;20072;-47
2024/04/11 04:50:07;;;;;;;6.67;2.23;;;10.30;99.90;;;;;;5452854;26;20339;-48
2024/04/11 04:52:33;;;;;;;6.63;1.40;;;10.30;99.90;;;;;;5452503;26;20139;-49
2024/04/11 04:55:00;;;;;;;4.20;1.27;;;10.30;99.90;;;;;;5452655;26;19998;-47
2024/04/11 04:57:27;;;;;;;5.50;1.23;;;10.30;99.90;;;;;;5452336;26;20045;-50
2024/04/11 04:59:53;;;;;;;4.77;1.40;;;10.40;99.90;;;;;;5452439;26;20005;-49
2024/04/11 05:02:20;;;;;;;4.90;1.30;;;10.40;99.90;;;;;;5452467;26;20064;-48
2024/04/11 05:04:46;;;;;;;6.97;1.70;;;10.40;99.90;;;;;;5452369;26;19990;-47
2024/04/11 05:07:12;;;;;;;6.07;1.33;;;10.40;99.90;;;;;;5452154;26;20064;-47
2024/04/11 05:09:38;;;;;;;5.33;1.20;;;10.40;99.90;;;;;;5452111;26;19991;-49
2024/04/11 05:12:05;;;;;;;8.83;2.00;;;10.40;99.90;;;;;;5452172;26;20397;-48
2024/04/11 05:14:38;;;;;;;5.83;1.67;;;10.40;99.90;;;;;;5452385;26;20397;-45
2024/04/11 05:17:08;;;;;;;6.80;1.73;;;10.50;99.90;;;;;;5452118;26;20439;-50
2024/04/11 05:19:35;;;;;;;6.47;2.10;;;10.40;99.90;;;;;;5450362;26;19999;-50
2024/04/11 05:22:04;;;;;;;6.20;1.40;;;10.50;99.90;;;;;;5452060;26;19999;-49
2024/04/11 05:24:30;;;;;;;4.90;1.45;;;10.40;99.90;;;;;;5451916;26;19999;-47
2024/04/11 05:26:56;;;;;;;5.93;1.80;;;10.40;99.90;;;;;;5451655;26;19994;-51
2024/04/11 05:29:25;;;;;;;6.57;1.90;;;10.40;99.90;;;;;;5452130;26;20276;-51
2024/04/11 05:31:51;;;;;;;4.18;1.70;;;10.50;99.90;;;;;;5452104;26;19995;-49
2024/04/11 05:34:20;;;;;;;6.50;1.43;;;10.60;99.90;;;;;;5452045;26;19995;-51
2024/04/11 05:36:46;;;;;;;4.85;1.70;;;10.70;99.90;;;;;;5451578;26;20459;-48
2024/04/11 05:39:14;;;;;;;5.80;1.63;;;10.70;99.90;;;;;;5451661;26;20404;-51
2024/04/11 05:41:43;;;;;;;11.27;2.27;;;10.70;99.90;;;;;;5451742;26;20048;-51
2024/04/11 05:44:10;;;;;;;4.17;1.37;;;10.70;99.90;;;;;;5451731;26;20005;-51
2024/04/11 05:46:36;;;;;;;4.77;1.30;;;10.70;99.90;;;;;;5450036;26;19995;-49
2024/04/11 05:49:04;;;;;;;6.37;1.40;;;10.80;99.90;;;;;;5451212;26;19997;-52
2024/04/11 05:51:30;;;;;;;5.43;1.30;;;10.80;99.90;;;;;;5450663;26;20003;-49
2024/04/11 05:53:57;;;;;;;5.53;1.60;;;10.90;99.90;;;;;;5451557;26;19998;-49
2024/04/11 05:56:23;;;;;;;6.70;1.90;;;10.90;99.90;;;;;;5451521;26;20002;-47
2024/04/11 05:58:49;;;;;;;9.10;2.50;;;10.90;99.90;;;;;;5451211;26;20075;-47
2024/04/11 06:01:15;;;;;;;9.37;3.07;;;10.90;99.90;;;;;;5451425;26;20007;-46
2024/04/11 06:03:49;;;;;;;5.23;1.60;;;11.00;99.90;;;;;;5451318;26;20002;-47
2024/04/11 06:06:19;;;;;;;6.13;1.63;;;11.10;99.90;;;;;;5451420;26;20067;-46
2024/04/11 06:08:46;;;;;;;7.27;2.00;;;11.10;99.90;;;;;;5451139;26;20002;-46
2024/04/11 06:11:14;;;;;;;7.23;2.00;;;11.10;99.90;;;;;;5451186;26;20067;-50
2024/04/11 06:13:41;;;;;;;7.47;2.57;;;11.10;99.90;;;;;;5462785;20;20013;-47
2024/04/11 06:16:07;;;;;;;28.53;13.60;;;11.00;99.90;;;;;;5415375;26;20433;-48
2024/04/11 06:18:35;;;;;;;7.10;2.00;;;11.10;99.90;;;;;;5414444;26;20069;-49
2024/04/11 06:21:04;;;;;;;6.38;1.88;;;11.10;99.90;;;;;;5415260;26;19988;-48
2024/04/11 06:23:31;;;;;;;7.75;2.42;;;11.00;99.90;;;;;;5415224;26;20467;-47
2024/04/11 06:26:00;;;;;;;6.53;2.20;;;11.00;99.90;;;;;;5414638;26;20332;-48
2024/04/11 06:28:28;;;;;;;6.18;2.13;;;11.00;99.90;;;;;;5414980;26;20335;-47
2024/04/11 06:30:54;;;;;;;5.97;2.00;;;11.00;99.90;;;;;;5415159;26;19999;-48
2024/04/11 06:33:24;;;;;;;9.40;2.27;;;11.00;99.90;;;;;;5415119;26;20003;-48
2024/04/11 06:35:53;;;;;;;;;;;11.00;99.90;;;;;;5415561;26;20000;-48
2024/04/11 06:38:20;;;;;;;5.15;1.80;;;11.00;99.90;;;;;;5412980;26;19925;-47
2024/04/11 06:40:48;;;;;;;4.87;1.80;;;11.00;99.90;;;;;;5414969;26;20409;-47
2024/04/11 06:43:17;;;;;;;8.63;2.53;;;11.00;99.90;;;;;;5414993;26;20028;-48
2024/04/11 06:45:46;;;;;;;8.35;2.42;;;11.00;99.90;;;;;;5415114;26;20110;-47
2024/04/11 06:48:12;;;;;;;;;;;11.00;99.90;;;;;;5415635;26;20000;-46
2024/04/11 06:50:39;;;;;;;10.43;2.17;;;11.00;99.90;;;;;;5415462;26;19936;-47
2024/04/11 06:53:06;;;;;;;7.70;2.70;;;11.10;99.90;;;;;;5415254;26;19996;-50
2024/04/11 06:55:34;;;;;;;6.30;2.70;;;11.10;99.90;;;;;;5414357;26;20096;-50
2024/04/11 06:58:01;;;;;;;6.23;2.23;;;11.20;99.90;;;;;;5414490;26;20006;-46
2024/04/11 07:00:36;;;;;;;6.83;2.70;;;11.10;99.90;;;;;;5414865;26;20010;-48
2024/04/11 07:03:16;;;;;;;6.43;2.20;;;11.20;99.90;;;;;;5414964;26;19999;-47
2024/04/11 07:05:51;;;;;;;7.17;1.93;;;11.30;99.90;;;;;;5418348;26;19995;-48
2024/04/11 07:08:19;;;;;;;7.03;2.30;;;11.30;99.90;;;;;;5417729;26;20072;-49
2024/04/11 07:10:46;;;;;;;5.23;1.93;;;11.30;99.90;;;;;;5418163;26;20007;-47
2024/04/11 07:13:13;;;;;;;6.40;2.00;;;11.30;99.90;;;;;;5417932;26;20051;-48
2024/04/11 07:15:42;;;;;;;6.73;2.13;;;11.40;99.90;;;;;;5417370;26;19991;-49
2024/04/11 07:18:14;;;;;;;7.67;1.80;;;11.40;99.90;;;;;;5417911;26;20002;-47
2024/04/11 07:20:50;;;;;;;8.53;2.37;;;11.50;99.90;;;;;;5417705;26;20003;-47
2024/04/11 07:23:20;;;;;;;9.20;2.10;;;11.50;99.90;;;;;;5417827;26;20007;-47
2024/04/11 07:25:46;;;;;;;5.77;2.10;;;11.50;99.90;;;;;;5418114;26;19999;-52
2024/04/11 07:28:15;;;;;;;6.37;1.80;;;11.50;99.90;;;;;;5417699;26;20489;-49
2024/04/11 07:30:41;;;;;;;6.95;2.00;;;11.50;99.90;;;;;;5416067;26;20444;-50
2024/04/11 07:33:07;;;;;;;6.33;2.07;;;11.60;99.90;;;;;;5417800;26;20027;-51
2024/04/11 07:35:37;;;;;;;9.33;2.30;;;11.70;99.90;;;;;;5417558;26;20035;-48
2024/04/11 07:38:04;;;;;;;7.10;2.27;;;11.70;99.90;;;;;;5417807;26;19999;-48
2024/04/11 07:40:45;;;;;;;5.93;1.90;;;11.80;99.90;;;;;;5417828;26;20069;-50
2024/04/11 07:43:13;;;;;;;8.27;1.90;;;11.90;99.90;;;;;;5417545;26;19999;-48
2024/04/11 07:45:40;;;;;;;5.13;2.27;;;11.90;99.90;;;;;;5417737;26;20000;-48
2024/04/11 07:48:10;;;;;;;6.03;1.60;;;12.00;99.90;;;;;;5417474;26;20012;-48
2024/04/11 07:50:36;;;;;;;;;;;12.20;99.90;;;;;;5417889;26;19999;-49
2024/04/11 07:53:06;;;;;;;8.03;2.23;;;12.20;99.90;;;;;;5417452;26;19994;-47
2024/04/11 07:55:36;;;;;;;9.10;2.13;;;12.40;99.90;;;;;;5417666;26;20015;-48
2024/04/11 07:58:06;;;;;;;6.13;1.70;;;12.50;99.90;;;;;;5417247;26;20453;-47
2024/04/11 08:00:39;;;;;;;7.73;1.83;;;12.60;99.90;;;;;;5417261;26;19995;-48
2024/04/11 08:03:08;;;;;;;8.57;1.90;;;12.70;99.90;;;;;;5417668;26;20000;-51
2024/04/11 08:05:34;;;;;;;6.55;1.67;;;12.70;99.90;;;;;;5417300;26;20414;-49
2024/04/11 08:08:00;;;;;;;7.43;1.80;;;12.80;99.90;;;;;;5417127;26;20437;-50
2024/04/11 08:10:29;;;;;;;4.63;1.47;;;12.80;99.90;;;;;;5415660;26;20000;-48
2024/04/11 08:12:57;;;;;;;6.88;1.50;;;12.90;99.90;;;;;;5417350;26;20072;-48
2024/04/11 08:15:25;;;;;;;6.10;1.70;;;12.90;99.90;;;;;;5416273;26;20027;-49
2024/04/11 08:17:51;;;;;;;7.15;1.75;;;13.00;99.90;;;;;;5416966;26;20000;-48
2024/04/11 08:20:19;;;;;;;14.88;1.90;;;13.10;99.90;;;;;;5417079;26;20065;-49
2024/04/11 08:22:47;;;;;;;12.73;2.40;;;13.10;99.90;;;;;;5417149;26;20029;-48
2024/04/11 08:25:14;;;;;;;6.68;1.50;;;13.10;99.90;;;;;;5417098;26;19991;-48
2024/04/11 08:27:40;;;;;;;9.80;1.90;;;13.10;99.90;;;;;;5416589;26;20521;-52
2024/04/11 08:30:07;;;;;;;6.13;1.77;;;13.20;99.90;;;;;;5417232;26;19995;-49
2024/04/11 08:32:33;;;;;;;8.55;1.83;;;13.20;99.90;;;;;;5416581;26;20031;-50
2024/04/11 08:35:00;;;;;;;8.23;2.00;;;13.20;99.90;;;;;;5416888;26;19992;-48
2024/04/11 08:37:28;;;;;;;5.90;1.58;;;13.30;99.90;;;;;;5416366;26;19996;-51
2024/04/11 08:39:55;;;;;;;6.93;1.73;;;13.40;99.90;;;;;;5416740;26;20002;-47
2024/04/11 08:42:21;;;;;;;10.68;3.15;;;13.30;99.90;;;;;;5416808;26;20000;-47
2024/04/11 08:44:50;;;;;;;6.72;1.80;;;13.30;99.90;;;;;;5417024;26;20065;-48
2024/04/11 08:47:17;;;;;;;8.07;1.67;;;13.40;99.90;;;;;;5414785;26;20410;-48
2024/04/11 08:49:43;;;;;;;7.47;1.55;;;13.40;99.90;;;;;;5416464;26;19999;-48
2024/04/11 08:52:13;;;;;;;6.70;1.65;;;13.40;99.90;;;;;;5416765;26;20000;-50
2024/04/11 08:54:41;;;;;;;6.63;1.58;;;13.40;99.90;;;;;;5415656;26;20529;-49
2024/04/11 08:57:11;;;;;;;3.47;1.42;;;13.40;99.90;;;;;;5415867;26;19996;-50
2024/04/11 08:59:39;;;;;;;;;;;13.50;99.90;;;;;;5417458;26;19999;-52
2024/04/11 09:02:08;;;;;;;7.93;1.30;;;13.50;99.90;;;;;;5416615;26;19924;-51
2024/04/11 09:04:34;;;;;;;8.68;1.60;;;13.60;99.90;;;;;;5416480;26;20003;-49
2024/04/11 09:07:00;;;;;;;6.00;1.70;;;13.60;99.90;;;;;;5415985;26;19996;-48
2024/04/11 09:09:30;;;;;;;9.90;1.63;;;13.60;99.90;;;;;;5416433;26;19996;-49
2024/04/11 09:11:56;;;;;;;9.18;1.60;;;13.70;99.90;;;;;;5416648;26;20072;-52
2024/04/11 09:14:23;;;;;;;6.90;1.67;;;13.80;99.90;;;;;;5416409;26;20400;-50
2024/04/11 09:17:04;;;;;;;5.88;1.50;;;13.90;99.90;;;;;;5414683;26;19999;-49
2024/04/11 09:19:39;;;;;;;5.45;1.40;;;13.90;99.90;;;;;;5416383;26;20000;-53
2024/04/11 09:22:12;;;;;;;6.38;1.50;;;14.00;99.90;;;;;;5416285;26;20156;-49
2024/04/11 09:24:45;;;;;;;6.05;1.60;;;14.10;99.90;;;;;;5416344;26;19999;-47
2024/04/11 09:27:16;;;;;;;6.03;1.40;;;14.10;99.90;;;;;;5412887;26;20007;-49
2024/04/11 09:29:43;;;;;;;6.75;1.40;;;14.10;99.90;;;;;;5416093;26;20000;-47
2024/04/11 09:32:15;;;;;;;7.97;2.05;;;14.10;99.90;;;;;;5416189;26;19995;-47
2024/04/11 09:34:47;;;;;;;10.43;1.75;;;14.10;99.90;;;;;;5416023;26;20006;-49
2024/04/11 09:37:16;;;;;;;7.40;1.83;;;14.10;99.90;;;;;;5414180;26;20444;-48
2024/04/11 09:39:46;;;;;;;9.98;1.92;;;14.00;99.90;;;;;;5415969;26;20437;-48
2024/04/11 09:42:19;;;;;;;6.93;1.25;;;14.10;99.90;;;;;;5415993;26;20337;-48
2024/04/11 09:44:47;;;;;;;6.45;1.30;;;14.10;99.90;;;;;;5415746;26;20010;-49
2024/04/11 09:47:26;;;;;;;5.95;1.42;;;14.00;99.90;;;;;;5415776;26;20011;-48
2024/04/11 09:49:53;;;;;;;;;;;14.00;99.90;;;;;;5416579;26;19999;-48
2024/04/11 09:52:27;;;;;;;11.02;1.83;;;14.10;99.90;;;;;;5414116;26;19929;-47
2024/04/11 09:54:55;;;;;;;9.10;1.75;;;14.20;99.90;;;;;;5416382;26;20011;-48
2024/04/11 09:57:26;;;;;;;8.93;1.58;;;14.20;99.90;;;;;;5415722;26;20000;-47
2024/04/11 09:59:55;;;;;;;6.97;1.60;;;14.20;99.90;;;;;;5415644;26;20000;-47
2024/04/11 10:02:24;;;;;;;5.72;1.50;;;14.20;99.90;;;;;;5415725;26;20015;-47
2024/04/11 10:04:56;;;;;;;;;;;14.30;99.90;;;;;;5416468;26;20460;-50
2024/04/11 10:07:25;;;;;;;11.75;2.10;;;14.30;99.90;;;;;;5415496;26;19925;-48
2024/04/11 10:09:54;;;;;;;7.60;1.80;;;14.30;99.90;;;;;;5413709;26;19996;-48
2024/04/11 10:12:20;;;;;;;8.02;1.60;;;14.50;99.90;;;;;;5413990;26;20011;-52
2024/04/11 10:14:51;;;;;;;6.93;1.55;;;14.50;99.90;;;;;;5414846;26;20068;-48
2024/04/11 10:17:17;;;;;;;7.97;1.50;;;14.50;99.90;;;;;;5415175;26;19996;-50
2024/04/11 10:19:43;;;;;;;3.65;1.23;;;14.60;99.90;;;;;;5412957;26;20065;-49
2024/04/11 10:22:20;;;;;;;9.85;2.15;;;14.60;99.90;;;;;;5415264;26;19991;-47
2024/04/11 10:24:49;;;;;;;7.15;1.70;;;14.60;99.90;;;;;;5415165;26;20011;-49
2024/04/11 10:27:18;;;;;;;9.65;1.58;;;14.60;99.90;;;;;;5414837;26;19999;-47
2024/04/11 10:29:49;;;;;;;7.85;1.73;;;14.60;99.90;;;;;;5415348;26;20003;-48
2024/04/11 10:32:21;;;;;;;5.85;1.40;;;14.40;99.90;;;;;;5415284;26;20011;-48
2024/04/11 10:34:56;;;;;;;5.78;1.60;;;14.30;99.90;;;;;;5415036;26;20007;-49
2024/04/11 10:37:29;;;;;;;11.32;2.03;;;14.20;99.90;;;;;;5415824;26;20007;-50
2024/04/11 10:39:58;;;;;;;7.32;1.90;;;14.30;99.90;;;;;;5418648;26;20017;-49
2024/04/11 10:45:18;;;;;;;8.40;2.13;;;14.40;99.90;;;;;;5390414;26;19991;-50
2024/04/11 10:47:44;;;;;;;7.22;1.45;;;14.40;99.90;;;;;;5418099;26;19991;-48
2024/04/11 10:50:14;;;;;;;5.82;1.50;;;14.50;99.90;;;;;;5418204;26;20069;-49
2024/04/11 10:52:45;;;;;;;7.05;1.50;;;14.50;99.90;;;;;;5418612;26;20252;-48
2024/04/11 10:55:22;;;;;;;8.18;1.73;;;14.60;99.90;;;;;;5418643;26;20452;-47
2024/04/11 10:58:08;;;;;;;6.80;1.60;;;14.80;99.90;;;;;;5418487;26;20020;-47
2024/04/11 11:01:07;;;;;;;5.03;1.20;;;14.80;99.90;;;;;;5418474;26;20011;-51
2024/04/11 11:03:46;;;;;;;7.03;1.30;;;14.70;99.90;;;;;;5418391;26;20000;-49
2024/04/11 11:06:26;;;;;;;6.15;1.48;;;14.60;99.90;;;;;;5418263;26;19995;-48
2024/04/11 11:08:58;;;;;;;5.22;1.30;;;14.60;99.90;;;;;;5418188;26;19991;-48
2024/04/11 11:11:26;;;;;;;7.68;1.50;;;14.50;99.90;;;;;;5418104;26;19999;-48
2024/04/11 11:13:54;;;;;;;4.28;1.20;;;14.60;99.90;;;;;;5417871;26;19996;-49
2024/04/11 11:16:26;;;;;;;7.10;2.38;;;14.60;99.90;;;;;;5417823;26;20007;-48
2024/04/11 11:18:52;;;;;;;6.15;2.03;;;14.60;99.90;;;;;;5417635;26;19996;-52
2024/04/11 11:21:22;;;;;;;7.90;1.50;;;14.70;99.90;;;;;;5417988;26;20015;-49
2024/04/11 11:24:00;;;;;;;7.93;1.70;;;14.70;99.90;;;;;;5417859;26;20006;-50
2024/04/11 11:26:37;;;;;;;3.80;1.60;;;14.70;99.90;;;;;;5417925;26;19999;-52
2024/04/11 11:29:07;;;;;;;9.40;1.73;;;14.80;99.90;;;;;;5417767;26;20011;-50
2024/04/11 11:31:36;;;;;;;4.38;1.73;;;14.90;99.90;;;;;;5417669;26;20010;-50
2024/04/11 11:34:09;;;;;;;6.63;1.83;;;15.00;99.90;;;;;;5418172;26;20000;-49
2024/04/11 11:36:37;;;;;;;4.78;1.52;;;15.00;99.90;;;;;;5417792;26;20003;-49
2024/04/11 11:39:04;;;;;;;8.73;2.17;;;15.00;99.90;;;;;;5417355;26;19996;-51
2024/04/11 11:41:43;;;;;;;4.00;1.50;;;15.00;99.90;;;;;;5416700;26;19995;-49
2024/04/11 11:44:17;;;;;;;3.55;1.50;;;15.00;99.90;;;;;;5417740;26;20479;-49
2024/04/11 11:46:44;;;;;;;4.55;1.63;;;14.90;99.90;;;;;;5417122;26;20006;-52
2024/04/11 11:49:12;;;;;;;6.10;1.80;;;14.90;99.90;;;;;;5416425;26;19992;-47
2024/04/11 11:51:39;;;;;;;4.55;1.50;;;14.90;99.90;;;;;;5417304;26;20031;-49
2024/04/11 11:54:12;;;;;;;5.38;1.70;;;15.00;99.90;;;;;;5415793;26;19999;-48
2024/04/11 11:56:42;;;;;;;6.25;1.55;;;15.10;99.90;;;;;;5417652;26;19995;-49
2024/04/11 11:59:11;;;;;;;7.07;1.60;;;15.10;99.90;;;;;;5415448;26;20422;-48
2024/04/11 12:01:51;;;;;;;6.80;1.60;;;15.20;99.90;;;;;;5417148;26;19996;-47
2024/04/11 12:04:17;;;;;;;3.88;1.65;;;15.20;99.90;;;;;;5417194;26;20494;-50
2024/04/11 12:06:48;;;;;;;7.20;2.17;;;15.20;99.90;;;;;;5415187;26;20327;-48
2024/04/11 12:09:14;;;;;;;4.95;1.90;;;15.20;99.90;;;;;;5417404;26;20006;-48
2024/04/11 12:14:34;;;;;;;5.03;1.20;;;15.40;99.90;;;;;;5416916;26;20000;-48
2024/04/11 12:17:04;;;;;;;5.40;1.73;;;15.50;99.90;;;;;;5415253;26;20004;-48
2024/04/11 12:19:31;;;;;;;6.90;1.90;;;15.30;99.90;;;;;;5416957;26;19995;-49
2024/04/11 12:22:11;;;;;;;6.25;1.65;;;15.30;99.90;;;;;;5416877;26;20008;-48
2024/04/11 12:24:40;;;;;;;5.68;1.90;;;15.40;99.90;;;;;;5416772;26;20007;-48
2024/04/11 12:27:06;;;;;;;;;;;15.40;99.90;;;;;;5417152;26;20035;-48
2024/04/11 12:29:32;;;;;;;5.68;1.83;;;15.50;99.90;;;;;;5416675;26;20429;-47
2024/04/11 12:32:02;;;;;;;10.02;1.75;;;15.40;99.90;;;;;;5416771;26;19997;-49
2024/04/11 12:34:32;;;;;;;5.50;1.42;;;15.60;99.90;;;;;;5417091;26;19999;-50
2024/04/11 12:37:01;;;;;;;11.50;2.00;;;15.60;99.90;;;;;;5416609;26;20398;-48
2024/04/11 12:39:41;;;;;;;6.13;1.67;;;15.50;99.90;;;;;;5416846;26;19999;-50
2024/04/11 12:42:11;;;;;;;5.03;1.70;;;15.60;99.90;;;;;;5417031;26;20003;-50
2024/04/11 12:44:36;;;;;;;10.80;2.10;;;15.80;99.90;;;;;;5416671;26;20123;-48
2024/04/11 12:47:13;;;;;;;6.57;2.28;;;16.10;99.90;;;;;;5414419;26;20440;-49
2024/04/11 12:49:43;;;;;;;6.63;1.65;;;16.10;99.90;;;;;;5416735;26;20024;-47
2024/04/11 12:52:11;;;;;;;6.20;1.92;;;16.20;99.90;;;;;;5416453;26;20006;-47
2024/04/11 12:54:40;;;;;;;6.78;2.00;;;16.30;99.90;;;;;;5416845;26;20463;-50
2024/04/11 12:57:06;;;;;;;7.65;2.20;;;16.30;99.90;;;;;;5416122;26;20007;-48
2024/04/11 12:59:34;;;;;;;5.38;2.17;;;16.30;99.90;;;;;;5416733;26;20453;-50
2024/04/11 13:02:01;;;;;;;7.07;2.22;;;16.30;99.90;;;;;;5416323;26;20076;-50
2024/04/11 13:04:32;;;;;;;5.65;2.20;;;16.30;99.90;;;;;;5416343;26;20447;-50
2024/04/11 13:07:02;;;;;;;6.82;2.20;;;16.30;99.90;;;;;;5416222;26;20449;-50